This is the latest recevied weather packets stored in our database for station/object KC8BSD. If no packets are shown the sender has not sent any weather packets the latest 1 day(s).
| Time | Temp. | Humidity | Pressure | Rain* | Wind** | Luminosity | Snow |
|---|---|---|---|---|---|---|---|
| 1777988088 | 14.44° C | 60% | 1006.7 hPa | 0 mm | 0.45 m/s, 321° | 166 W/m² | - |
| 1777987783 | 14.44° C | 59% | 1006.4 hPa | 0 mm | 2.24 m/s, 44° | 196 W/m² | - |
| 1777987480 | 14.44° C | 59% | 1006.5 hPa | 0 mm | 0.89 m/s, 1° | 277 W/m² | - |
| 1777987178 | 13.89° C | 60% | 1006 hPa | 0 mm | 0.89 m/s, 8° | 198 W/m² | - |
| 1777986874 | 14.44° C | 58% | 1005.8 hPa | 0 mm | 1.79 m/s, 3° | 123 W/m² | - |
| 1777986572 | 15° C | 57% | 1006.1 hPa | 0 mm | 1.79 m/s, 113° | 140 W/m² | - |
| 1777986270 | 15.56° C | 57% | 1006 hPa | 0 mm | 0.45 m/s, 280° | 137 W/m² | - |
| 1777985967 | 15° C | 57% | 1005.7 hPa | 0 mm | 0.45 m/s, 256° | 317 W/m² | - |
| 1777985665 | 15° C | 57% | 1005.5 hPa | 0 mm | 0.45 m/s, 119° | 265 W/m² | - |
| 1777985361 | 15° C | 59% | 1005.2 hPa | 0 mm | 0.45 m/s, 264° | 307 W/m² | - |
| 1777985058 | 15° C | 58% | 1005.1 hPa | 0 mm | 1.79 m/s, 20° | 264 W/m² | - |
| 1777984754 | 15° C | 60% | 1005.3 hPa | 0 mm | 0.45 m/s, 161° | 230 W/m² | - |
| 1777984451 | 15° C | 61% | 1005.5 hPa | 0 mm | 0.89 m/s, 122° | 210 W/m² | - |
| 1777984146 | 15° C | 63% | 1005 hPa | 0 mm | 0.45 m/s, 272° | 200 W/m² | - |
| 1777983844 | 14.44° C | 65% | 1005 hPa | 0 mm | 1.34 m/s, 46° | 170 W/m² | - |
| 1777983540 | 15° C | 67% | 1005.1 hPa | 0 mm | 0.45 m/s, 249° | 134 W/m² | - |
| 1777983238 | 15° C | 69% | 1005.3 hPa | 0 mm | 0.89 m/s, 39° | 145 W/m² | - |
| 1777982933 | 14.44° C | 70% | 1005.1 hPa | 0 mm | 0.45 m/s, 278° | 139 W/m² | - |
| 1777982630 | 13.89° C | 72% | 1005.2 hPa | 0 mm | 0.45 m/s, 111° | 119 W/m² | - |
| 1777982329 | 13.89° C | 76% | 1005 hPa | 0 mm | 0.45 m/s, 259° | 110 W/m² | - |
| 1777982026 | 13.89° C | 77% | 1005.2 hPa | 0 mm | 0.45 m/s, 22° | 96 W/m² | - |
| 1777981724 | 13.33° C | 79% | 1005 hPa | 0 mm | 0.45 m/s, 269° | 84 W/m² | - |
| 1777981420 | 13.33° C | 82% | 1005 hPa | 0 mm | 0.89 m/s, 289° | 91 W/m² | - |
| 1777981116 | 12.78° C | 84% | 1004.9 hPa | 0 mm | 1.34 m/s, 53° | 78 W/m² | - |
| 1777980813 | 12.78° C | 85% | 1005.1 hPa | 0 mm | 0.45 m/s, 272° | 44 W/m² | - |
* Rain latest hour (hover to see other rain measurements)
** Current wind speed in m/s (hover to see current wind gust speed)